Time;durP1;ratioP1;P1;durP2;ratioP2;P2;SDS_P1;SDS_P2;PMS_P1;PMS_P2;Temp;Humidity;BMP_temperature;BMP_pressure;BME280_temperature;BME280_humidity;BME280_pressure;Samples;Min_cycle;Max_cycle;Signal;HPM_P1;HPM_P2
2021/01/12 00:02:03;;;;;;;2.40;1.70;;;;;;;1.72;100.00;97597.28;4965084;28;20065;-81
2021/01/12 00:04:32;;;;;;;1.40;1.30;;;;;;;1.69;100.00;97592.97;4955139;28;20049;-80
2021/01/12 00:06:57;;;;;;;0.52;0.50;;;;;;;1.59;100.00;97581.78;4954946;28;20035;-80
2021/01/12 00:09:23;;;;;;;3.03;1.65;;;;;;;1.59;100.00;97597.59;4966474;28;20026;-80
2021/01/12 00:11:51;;;;;;;0.90;0.90;;;;;;;1.56;100.00;97578.38;4974379;28;20022;-80
2021/01/12 00:14:31;;;;;;;1.48;0.82;;;;;;;1.58;100.00;97590.59;4974456;28;20045;-80
2021/01/12 00:16:58;;;;;;;3.45;1.77;;;;;;;1.59;100.00;97618.69;4976067;28;20030;-80
2021/01/12 00:19:24;;;;;;;1.35;0.80;;;;;;;1.57;100.00;97595.88;4974353;28;20105;-80
2021/01/12 00:21:49;;;;;;;1.27;1.25;;;;;;;1.62;100.00;97594.88;4974340;28;20465;-80
2021/01/12 00:24:15;;;;;;;1.27;1.23;;;;;;;1.70;100.00;97610.47;4973526;28;20039;-80
2021/01/12 00:26:41;;;;;;;2.85;1.38;;;;;;;1.58;100.00;97585.31;4973956;28;20054;-80
2021/01/12 00:29:06;;;;;;;0.85;0.65;;;;;;;1.71;100.00;97590.25;4973743;28;20034;-81
2021/01/12 00:31:33;;;;;;;2.05;1.77;;;;;;;1.76;100.00;97588.34;4974031;28;20026;-80
2021/01/12 00:33:58;;;;;;;0.73;0.73;;;;;;;1.78;100.00;97576.03;4973837;28;20100;-80
2021/01/12 00:36:24;;;;;;;2.28;0.85;;;;;;;1.71;100.00;97570.03;4974024;28;20034;-80
2021/01/12 00:38:50;;;;;;;1.08;0.85;;;;;;;1.60;100.00;97595.81;4974092;28;20038;-80
2021/01/12 00:41:15;;;;;;;7.13;3.00;;;;;;;1.64;100.00;97593.06;4974134;28;20037;-80
2021/01/12 00:43:41;;;;;;;0.40;0.40;;;;;;;1.59;100.00;97592.34;4974363;28;20031;-80
2021/01/12 00:46:07;;;;;;;0.63;0.63;;;;;;;1.69;100.00;97597.34;4974077;28;20030;-80
2021/01/12 00:48:33;;;;;;;3.67;2.08;;;;;;;1.75;100.00;97587.53;4958046;28;20057;-79
2021/01/12 00:50:58;;;;;;;0.57;0.57;;;;;;;1.75;100.00;97573.47;4974279;28;20105;-80
2021/01/12 00:53:24;;;;;;;1.33;1.23;;;;;;;1.69;100.00;97563.09;4974137;28;20745;-80
2021/01/12 00:55:50;;;;;;;1.75;0.77;;;;;;;1.77;100.00;97554.06;4974097;28;20027;-80
2021/01/12 00:58:15;;;;;;;0.90;0.90;;;;;;;1.81;100.00;97558.34;4976140;28;20536;-81
2021/01/12 01:00:41;;;;;;;1.33;1.23;;;;;;;1.79;100.00;97561.91;4977689;28;20045;-81
2021/01/12 01:03:06;;;;;;;0.68;0.68;;;;;;;1.77;100.00;97571.66;4977821;28;20038;-81
2021/01/12 01:05:32;;;;;;;1.08;1.05;;;;;;;1.76;100.00;97573.41;4977184;28;20046;-80
2021/01/12 01:07:58;;;;;;;3.13;1.55;;;;;;;1.63;100.00;97559.69;4976861;28;20026;-82
2021/01/12 01:10:23;;;;;;;0.63;0.57;;;;;;;1.68;100.00;97538.50;4976665;28;20030;-80
2021/01/12 01:12:49;;;;;;;1.25;1.10;;;;;;;1.75;100.00;97541.84;4976889;28;20151;-80
2021/01/12 01:15:15;;;;;;;1.70;1.35;;;;;;;1.74;100.00;97554.16;4976795;28;20026;-80
2021/01/12 01:17:41;;;;;;;0.80;0.80;;;;;;;1.69;100.00;97555.19;4977004;28;20027;-81
2021/01/12 01:20:07;;;;;;;0.43;0.43;;;;;;;1.67;100.00;97563.13;4977046;28;20026;-80
2021/01/12 01:22:33;;;;;;;0.80;0.80;;;;;;;1.67;100.00;97570.16;4976299;28;20034;-80
2021/01/12 01:24:58;;;;;;;1.08;0.80;;;;;;;1.64;100.00;97573.75;4976706;28;20117;-81
2021/01/12 01:27:24;;;;;;;0.75;0.75;;;;;;;1.65;100.00;97572.84;4976481;28;20041;-81
2021/01/12 01:29:49;;;;;;;1.35;1.20;;;;;;;1.62;100.00;97563.25;4976842;28;20038;-80
2021/01/12 01:32:15;;;;;;;1.20;1.10;;;;;;;1.68;100.00;97553.44;4976813;28;20038;-81
2021/01/12 01:34:40;;;;;;;1.75;1.05;;;;;;;1.72;100.00;97573.56;4976741;28;20014;-81
2021/01/12 01:37:06;;;;;;;0.93;0.68;;;;;;;1.70;100.00;97572.72;4976901;28;20117;-82
2021/01/12 01:39:32;;;;;;;1.08;1.05;;;;;;;1.71;100.00;97548.09;4976302;28;20041;-81
2021/01/12 01:42:02;;;;;;;3.15;1.50;;;;;;;1.73;100.00;97546.25;4976554;28;20030;-81
2021/01/12 01:44:28;;;;;;;0.63;0.63;;;;;;;1.71;100.00;97538.41;4976283;28;20074;-81
2021/01/12 01:46:55;;;;;;;3.38;1.58;;;;;;;1.73;100.00;97552.41;4976338;28;20030;-81
2021/01/12 01:49:21;;;;;;;0.98;0.50;;;;;;;1.67;100.00;97557.84;4944457;28;20473;-80
2021/01/12 01:51:47;;;;;;;1.85;1.35;;;;;;;1.77;100.00;97554.06;4976653;28;20026;-81
2021/01/12 01:54:13;;;;;;;4.68;2.83;;;;;;;1.77;100.00;97545.28;4976229;28;20089;-81
2021/01/12 01:56:39;;;;;;;3.00;1.35;;;;;;;1.75;100.00;97520.75;4975982;28;20034;-81
2021/01/12 01:59:05;;;;;;;0.38;0.38;;;;;;;1.54;100.00;97520.41;4976177;28;20030;-80
2021/01/12 02:01:30;;;;;;;1.08;1.05;;;;;;;1.64;100.00;97527.16;4975850;28;20031;-80
2021/01/12 02:04:10;;;;;;;0.40;0.40;;;;;;;1.71;100.00;97543.69;4976128;28;20503;-81
2021/01/12 02:06:37;;;;;;;4.47;1.48;;;;;;;1.57;100.00;97536.13;4975919;28;20100;-81
2021/01/12 02:09:13;;;;;;;0.60;0.60;;;;;;;1.59;100.00;97523.81;4976111;28;20113;-80
2021/01/12 02:11:41;;;;;;;0.80;0.80;;;;;;;1.59;100.00;97502.72;4975982;28;20030;-80
2021/01/12 02:14:13;;;;;;;2.13;1.52;;;;;;;1.48;100.00;97503.88;4976330;28;20588;-80
2021/01/12 02:16:40;;;;;;;0.70;0.70;;;;;;;1.55;100.00;97500.19;4975978;28;20422;-80
2021/01/12 02:19:09;;;;;;;3.95;2.40;;;;;;;1.52;100.00;97495.88;4976171;28;20030;-80
2021/01/12 02:21:43;;;;;;;1.88;1.77;;;;;;;1.61;100.00;97510.56;4959696;28;20100;-82
2021/01/12 02:24:09;;;;;;;0.75;0.75;;;;;;;1.55;100.00;97511.59;4975357;28;20553;-81
2021/01/12 02:26:35;;;;;;;4.70;2.03;;;;;;;1.58;100.00;97506.25;4959279;28;20026;-81
2021/01/12 02:29:01;;;;;;;0.75;0.70;;;;;;;1.62;100.00;97514.94;4975650;28;20030;-81
2021/01/12 02:31:30;;;;;;;1.50;1.42;;;;;;;1.63;100.00;97499.06;4975546;28;20140;-81
2021/01/12 02:34:01;;;;;;;6.45;1.48;;;;;;;1.59;100.00;97501.84;4976031;28;20072;-81
2021/01/12 02:36:29;;;;;;;0.75;0.75;;;;;;;1.64;100.00;97495.53;4975552;28;20096;-81
2021/01/12 02:38:54;;;;;;;0.50;0.50;;;;;;;1.50;100.00;97479.25;4975555;28;20026;-81
2021/01/12 02:41:20;;;;;;;0.60;0.60;;;;;;;1.49;100.00;97466.09;4975671;28;20026;-79
2021/01/12 02:43:47;;;;;;;1.10;0.77;;;;;;;1.43;100.00;97440.78;4975639;28;20117;-79
2021/01/12 02:46:15;;;;;;;1.52;1.23;;;;;;;1.33;100.00;97473.56;4975360;28;20093;-81
2021/01/12 02:48:41;;;;;;;1.65;1.55;;;;;;;1.35;100.00;97477.03;4975193;28;20026;-79
2021/01/12 02:51:07;;;;;;;1.15;1.10;;;;;;;1.39;100.00;97481.28;4959281;28;20068;-79
2021/01/12 02:53:33;;;;;;;5.43;2.00;;;;;;;1.44;100.00;97475.91;4975025;28;20065;-81
2021/01/12 02:55:58;;;;;;;1.38;1.27;;;;;;;1.42;100.00;97483.84;4974968;28;20524;-80
2021/01/12 02:58:24;;;;;;;1.75;1.65;;;;;;;1.33;100.00;97470.91;4974994;28;20030;-81
2021/01/12 03:00:50;;;;;;;1.13;1.10;;;;;;;1.30;100.00;97455.19;4959104;28;20030;-79
2021/01/12 03:03:15;;;;;;;3.67;2.05;;;;;;;1.26;100.00;97452.69;4974947;28;20054;-81
2021/01/12 03:05:41;;;;;;;1.67;1.58;;;;;;;1.25;100.00;97441.28;4975109;28;20120;-81
2021/01/12 03:08:07;;;;;;;0.40;0.40;;;;;;;1.24;100.00;97452.72;4975458;28;20061;-79
2021/01/12 03:10:33;;;;;;;0.65;0.65;;;;;;;1.16;100.00;97446.81;4975062;28;20038;-80
2021/01/12 03:12:59;;;;;;;0.13;0.13;;;;;;;1.12;100.00;97432.00;4975003;28;20037;-80
2021/01/12 03:15:25;;;;;;;1.20;1.10;;;;;;;1.25;100.00;97441.28;4975032;28;20042;-80
2021/01/12 03:17:50;;;;;;;0.40;0.40;;;;;;;1.26;100.00;97432.47;4974717;28;20026;-79
2021/01/12 03:20:16;;;;;;;0.28;0.25;;;;;;;1.35;100.00;97445.41;4974506;28;20037;-80
2021/01/12 03:22:41;;;;;;;0.90;0.90;;;;;;;1.41;100.00;97433.84;4974567;28;20034;-80
2021/01/12 03:25:08;;;;;;;2.00;1.48;;;;;;;1.42;100.00;97446.09;4974987;28;20034;-80
2021/01/12 03:27:35;;;;;;;0.65;0.65;;;;;;;1.52;100.00;97453.72;4974926;28;20030;-80
2021/01/12 03:30:01;;;;;;;1.77;1.67;;;;;;;1.50;100.00;97447.63;4974857;28;20065;-80
2021/01/12 03:32:27;;;;;;;1.77;1.67;;;;;;;1.57;100.00;97451.78;4974873;28;20034;-80
2021/01/12 03:34:53;;;;;;;5.55;2.60;;;;;;;1.52;100.00;97452.84;4974387;28;20061;-80
2021/01/12 03:37:18;;;;;;;1.27;1.25;;;;;;;1.58;100.00;97452.66;4974552;28;20473;-80
2021/01/12 03:39:44;;;;;;;1.23;1.20;;;;;;;1.55;100.00;97434.31;4974542;28;20027;-79
2021/01/12 03:42:10;;;;;;;1.17;1.13;;;;;;;1.60;100.00;97435.91;4974626;28;20061;-81
2021/01/12 03:44:35;;;;;;;2.65;1.90;;;;;;;1.66;100.00;97431.38;4974137;28;20030;-81
2021/01/12 03:47:01;;;;;;;1.77;1.67;;;;;;;1.62;100.00;97434.09;4974381;28;20057;-79
2021/01/12 03:49:26;;;;;;;0.73;0.65;;;;;;;1.60;100.00;97427.13;4974517;28;20030;-81
2021/01/12 03:51:52;;;;;;;0.80;0.80;;;;;;;1.60;100.00;97437.66;4974307;28;20064;-80
2021/01/12 03:54:17;;;;;;;3.97;1.50;;;;;;;1.56;100.00;97434.28;4974674;28;20033;-80
2021/01/12 03:56:43;;;;;;;1.52;1.13;;;;;;;1.44;100.00;97429.34;4974302;28;20030;-80
2021/01/12 03:59:09;;;;;;;2.15;1.73;;;;;;;1.36;100.00;97431.31;4975046;28;20093;-81
2021/01/12 04:01:41;;;;;;;1.00;0.80;;;;;;;1.44;100.00;97439.03;4974433;28;20038;-81
2021/01/12 04:04:07;;;;;;;0.65;0.65;;;;;;;1.46;100.00;97429.28;4974359;28;20053;-82
2021/01/12 04:06:32;;;;;;;1.15;1.08;;;;;;;1.47;100.00;97439.81;4990372;28;20557;-80
2021/01/12 04:08:58;;;;;;;1.27;1.17;;;;;;;1.51;100.00;97448.47;4974241;28;20030;-80
2021/01/12 04:11:24;;;;;;;1.48;1.38;;;;;;;1.42;100.00;97444.31;4974318;28;20121;-80
2021/01/12 04:13:49;;;;;;;3.95;1.30;;;;;;;1.50;100.00;97441.50;4973923;28;20030;-81
2021/01/12 04:16:15;;;;;;;1.65;1.33;;;;;;;1.54;100.00;97433.44;4974505;28;20038;-80
2021/01/12 04:18:40;;;;;;;1.80;1.30;;;;;;;1.58;100.00;97421.91;4974215;28;20034;-81
2021/01/12 04:21:06;;;;;;;1.38;1.27;;;;;;;1.58;100.00;97421.03;4973950;28;20486;-79
2021/01/12 04:23:32;;;;;;;1.00;1.00;;;;;;;1.61;100.00;97416.56;4962049;28;20047;-79
2021/01/12 04:25:57;;;;;;;2.13;1.73;;;;;;;1.66;100.00;97419.06;4935678;29;20483;-81
2021/01/12 04:28:23;;;;;;;0.65;0.65;;;;;;;1.38;100.00;97411.09;4951547;28;20027;-80
2021/01/12 04:30:48;;;;;;;1.00;1.00;;;;;;;1.45;100.00;97415.25;4935602;28;20418;-81
2021/01/12 04:33:14;;;;;;;1.65;1.55;;;;;;;1.37;100.00;97417.25;4954332;29;20027;-80
2021/01/12 04:35:40;;;;;;;3.90;1.77;;;;;;;1.27;100.00;97407.88;4939316;29;20039;-80
2021/01/12 04:38:05;;;;;;;3.22;1.10;;;;;;;1.34;100.00;97412.06;4955314;28;20034;-81
2021/01/12 04:40:31;;;;;;;9.88;2.90;;;;;;;1.23;100.00;97403.56;4955158;29;20042;-79
2021/01/12 04:42:57;;;;;;;3.03;2.05;;;;;;;1.27;100.00;97409.63;4954916;29;20059;-80
2021/01/12 04:45:23;;;;;;;7.57;2.85;;;;;;;1.30;100.00;97405.16;4954893;28;20475;-80
2021/01/12 04:47:49;;;;;;;3.08;2.55;;;;;;;1.37;100.00;97416.38;4954881;29;20050;-81
2021/01/12 04:50:14;;;;;;;1.10;0.98;;;;;;;1.38;100.00;97399.69;4955534;29;20023;-80
2021/01/12 04:52:50;;;;;;;2.83;2.63;;;;;;;1.40;100.00;97390.81;4955298;28;20023;-79
2021/01/12 04:55:17;;;;;;;2.97;2.78;;;;;;;1.31;100.00;97390.22;4938891;29;20042;-80
2021/01/12 04:57:43;;;;;;;5.95;3.85;;;;;;;1.30;100.00;97384.06;4954861;29;20027;-81
2021/01/12 05:00:25;;;;;;;4.47;1.67;;;;;;;1.42;100.00;97407.44;4954316;29;20114;-81
2021/01/12 05:03:06;;;;;;;2.50;1.90;;;;;;;1.41;100.00;97408.38;4954421;28;20407;-80
2021/01/12 05:05:34;;;;;;;1.85;1.60;;;;;;;1.46;100.00;97401.19;4954482;29;20034;-78
2021/01/12 05:08:05;;;;;;;2.60;1.50;;;;;;;1.48;100.00;97399.34;4954055;28;20034;-80
2021/01/12 05:10:34;;;;;;;0.65;0.65;;;;;;;1.55;100.00;97405.31;4954517;29;20503;-80
2021/01/12 05:13:01;;;;;;;1.55;1.45;;;;;;;1.47;100.00;97396.78;4938833;29;20071;-80
2021/01/12 05:15:29;;;;;;;3.55;1.95;;;;;;;1.47;100.00;97397.66;4954959;29;20042;-80
2021/01/12 05:18:00;;;;;;;13.70;3.40;;;;;;;1.55;100.00;97421.13;4938900;29;20117;-80
2021/01/12 05:20:26;;;;;;;8.05;2.42;;;;;;;1.50;100.00;97415.13;4937514;29;20418;-81
2021/01/12 05:23:08;;;;;;;2.15;1.98;;;;;;;1.43;100.00;97398.63;4937150;29;20055;-81
2021/01/12 05:25:39;;;;;;;1.00;1.00;;;;;;;1.42;100.00;97370.53;4953227;29;20023;-81
2021/01/12 05:28:09;;;;;;;1.48;1.25;;;;;;;1.44;100.00;97376.66;4953288;28;20058;-80
2021/01/12 05:30:35;;;;;;;2.28;1.60;;;;;;;1.42;100.00;97378.44;4946269;29;20483;-80
2021/01/12 05:33:02;;;;;;;2.60;1.77;;;;;;;1.45;100.00;97388.91;4952864;28;20024;-79
2021/01/12 05:35:32;;;;;;;2.75;2.15;;;;;;;1.56;100.00;97402.66;4945538;29;20506;-79
2021/01/12 05:38:03;;;;;;;1.70;1.60;;;;;;;1.56;100.00;97388.59;4947729;29;20510;-79
2021/01/12 05:40:33;;;;;;;1.67;1.58;;;;;;;1.47;100.00;97370.44;4942764;29;20028;-79
2021/01/12 05:43:13;;;;;;;1.17;1.15;;;;;;;1.45;100.00;97359.06;4964990;28;20035;-79
2021/01/12 05:45:40;;;;;;;2.45;1.98;;;;;;;1.54;100.00;97341.19;4930482;29;20106;-79
2021/01/12 05:48:07;;;;;;;3.70;1.77;;;;;;;1.59;100.00;97341.94;4938035;29;20407;-80
2021/01/12 05:50:33;;;;;;;1.58;1.48;;;;;;;1.54;100.00;97338.56;4937785;29;20023;-81
2021/01/12 05:53:07;;;;;;;2.00;1.80;;;;;;;1.43;100.00;97338.03;4953883;29;20039;-79
2021/01/12 05:55:40;;;;;;;2.28;2.08;;;;;;;1.51;100.00;97335.16;4938104;29;20114;-80
2021/01/12 05:58:18;;;;;;;2.40;2.20;;;;;;;1.41;100.00;97329.31;4937694;29;20031;-79
2021/01/12 06:00:46;;;;;;;4.00;2.47;;;;;;;1.44;100.00;97352.94;4953830;28;20035;-79
2021/01/12 06:03:16;;;;;;;1.15;1.05;;;;;;;1.37;100.00;97350.50;4953766;29;20031;-80
2021/01/12 06:05:46;;;;;;;1.75;1.42;;;;;;;1.44;100.00;97366.13;4953356;29;20050;-81
2021/01/12 06:08:16;;;;;;;1.65;0.95;;;;;;;1.44;100.00;97365.25;4953776;28;20070;-79
2021/01/12 06:10:46;;;;;;;1.88;1.77;;;;;;;1.40;100.00;97361.84;4937763;29;20174;-80
2021/01/12 06:13:14;;;;;;;2.60;1.77;;;;;;;1.43;100.00;97345.94;4953340;28;20536;-79
2021/01/12 06:15:45;;;;;;;1.40;1.30;;;;;;;1.39;100.00;97339.03;4944897;29;20027;-79
2021/01/12 06:18:15;;;;;;;0.20;0.20;;;;;;;1.36;100.00;97340.88;4946229;29;20034;-79
2021/01/12 06:20:55;;;;;;;0.30;0.30;;;;;;;1.25;100.00;97343.84;4933944;29;20063;-80
2021/01/12 06:23:46;;;;;;;2.65;1.80;;;;;;;1.39;100.00;97340.78;4949575;28;20506;-80
2021/01/12 06:26:13;;;;;;;0.50;0.50;;;;;;;1.39;100.00;97346.91;4964156;28;20054;-81
2021/01/12 06:28:42;;;;;;;1.02;1.02;;;;;;;1.44;100.00;97350.31;4989372;28;20027;-79
2021/01/12 06:31:09;;;;;;;4.93;2.97;;;;;;;1.46;100.00;97351.13;4955977;28;20409;-81
2021/01/12 06:33:35;;;;;;;1.70;1.30;;;;;;;1.55;100.00;97345.56;4955789;28;20048;-81
2021/01/12 06:36:02;;;;;;;2.13;2.00;;;;;;;1.57;100.00;97334.97;4969995;28;20026;-80
2021/01/12 06:38:29;;;;;;;0.45;0.45;;;;;;;1.60;100.00;97337.50;4957906;28;20026;-80
2021/01/12 06:40:57;;;;;;;5.15;2.80;;;;;;;1.57;100.00;97356.06;4956321;28;20030;-80
2021/01/12 06:43:28;;;;;;;3.80;3.42;;;;;;;1.63;100.00;97340.09;4955939;28;20422;-81
2021/01/12 06:45:55;;;;;;;3.47;3.20;;;;;;;1.63;100.00;97342.72;4987476;28;20041;-80
2021/01/12 06:48:20;;;;;;;5.30;2.97;;;;;;;1.66;100.00;97354.94;4951310;28;20034;-80
2021/01/12 06:50:47;;;;;;;1.83;1.73;;;;;;;1.58;100.00;97353.38;4963954;28;20043;-80
2021/01/12 06:53:14;;;;;;;1.40;1.30;;;;;;;1.66;100.00;97340.00;4963017;28;20034;-80
2021/01/12 06:55:40;;;;;;;5.78;5.13;;;;;;;1.66;100.00;97310.13;4939756;28;20509;-81
2021/01/12 06:58:09;;;;;;;2.67;2.45;;;;;;;1.76;100.00;97303.63;4956012;28;20506;-80
2021/01/12 07:00:38;;;;;;;1.30;1.17;;;;;;;1.60;100.00;97296.22;4973733;28;20034;-81
2021/01/12 07:03:06;;;;;;;6.15;2.08;;;;;;;1.55;100.00;97298.13;4975191;28;20045;-80
2021/01/12 07:05:42;;;;;;;1.35;1.25;;;;;;;1.61;100.00;97268.97;4974417;28;20030;-81
2021/01/12 07:08:09;;;;;;;1.02;1.02;;;;;;;1.69;100.00;97274.00;4974872;28;20410;-81
2021/01/12 07:10:43;;;;;;;7.88;3.35;;;;;;;1.75;100.00;97275.56;4957125;28;20031;-80
2021/01/12 07:13:09;;;;;;;3.72;2.70;;;;;;;1.75;100.00;97304.56;4961339;28;20072;-81
2021/01/12 07:15:50;;;;;;;2.47;2.28;;;;;;;1.70;100.00;97338.97;4966437;28;20058;-80
2021/01/12 07:18:22;;;;;;;1.58;1.48;;;;;;;1.62;100.00;97339.22;4974759;28;20121;-81
2021/01/12 07:20:49;;;;;;;1.58;1.48;;;;;;;1.50;100.00;97307.97;4958359;28;20101;-80
2021/01/12 07:23:16;;;;;;;2.15;1.98;;;;;;;1.62;100.00;97322.53;4974401;28;20081;-80
2021/01/12 07:25:43;;;;;;;1.13;1.08;;;;;;;1.71;100.00;97311.72;4974252;28;20072;-80
2021/01/12 07:28:15;;;;;;;0.75;0.75;;;;;;;1.77;100.00;97327.34;4960913;28;20022;-80
2021/01/12 07:30:43;;;;;;;3.70;3.35;;;;;;;1.75;100.00;97333.56;4971342;28;20588;-80
2021/01/12 07:33:17;;;;;;;3.63;2.85;;;;;;;1.67;100.00;97322.38;4969087;28;20089;-80
2021/01/12 07:35:45;;;;;;;1.33;1.23;;;;;;;1.72;100.00;97312.56;4988837;28;20037;-79
2021/01/12 07:38:14;;;;;;;2.03;1.90;;;;;;;1.68;100.00;97322.34;4963510;28;20035;-80
2021/01/12 07:40:40;;;;;;;4.90;2.80;;;;;;;1.73;100.00;97324.81;4973047;28;20034;-80
2021/01/12 07:43:06;;;;;;;2.10;1.92;;;;;;;1.80;100.00;97335.16;4974614;28;20037;-80
2021/01/12 07:45:33;;;;;;;4.40;3.60;;;;;;;1.72;100.00;97333.66;4974275;28;20073;-80
2021/01/12 07:48:00;;;;;;;5.00;3.22;;;;;;;1.80;100.00;97337.78;4959673;28;20481;-80
2021/01/12 07:50:29;;;;;;;3.83;3.53;;;;;;;1.81;100.00;97338.66;4974526;28;20034;-80
2021/01/12 07:52:55;;;;;;;3.17;2.65;;;;;;;1.83;100.00;97339.47;4955032;28;20031;-80
2021/01/12 07:55:22;;;;;;;4.00;3.63;;;;;;;1.81;100.00;97341.28;4971376;28;20019;-80
2021/01/12 07:57:49;;;;;;;2.78;2.55;;;;;;;1.81;100.00;97333.38;4965725;28;20026;-79
2021/01/12 08:00:21;;;;;;;3.20;2.90;;;;;;;1.80;100.00;97336.91;4972553;28;20042;-80
2021/01/12 08:02:52;;;;;;;5.82;3.63;;;;;;;1.82;100.00;97311.34;4949503;28;20086;-81
2021/01/12 08:05:21;;;;;;;7.70;3.50;;;;;;;1.85;100.00;97298.06;4966187;28;20037;-80
2021/01/12 08:07:46;;;;;;;4.85;4.43;;;;;;;1.87;100.00;97291.00;4961841;28;20120;-80
2021/01/12 08:10:12;;;;;;;5.28;4.38;;;;;;;1.84;100.00;97291.09;4972745;28;20479;-80
2021/01/12 08:12:38;;;;;;;6.82;4.20;;;;;;;1.85;100.00;97283.13;4966841;28;20093;-80
2021/01/12 08:15:09;;;;;;;3.65;2.97;;;;;;;2.04;100.00;97293.94;4946809;28;20066;-80
2021/01/12 08:17:35;;;;;;;3.35;2.83;;;;;;;2.02;100.00;97280.81;4961422;28;20022;-79
2021/01/12 08:20:05;;;;;;;2.63;1.83;;;;;;;2.02;100.00;97295.78;4978158;28;20040;-80
2021/01/12 08:22:31;;;;;;;4.07;3.45;;;;;;;1.96;100.00;97306.53;4969845;28;20034;-79
2021/01/12 08:25:06;;;;;;;1.38;1.27;;;;;;;1.96;100.00;97293.34;4977083;28;20409;-80
2021/01/12 08:27:32;;;;;;;2.50;1.73;;;;;;;2.11;100.00;97295.47;4945832;28;20030;-80
2021/01/12 08:29:59;;;;;;;2.05;1.85;;;;;;;1.78;99.80;97292.16;4969389;28;20460;-80
2021/01/12 08:32:28;;;;;;;3.92;2.75;;;;;;;1.78;100.00;97301.84;4953026;28;20101;-80
2021/01/12 08:34:57;;;;;;;4.75;2.50;;;;;;;1.93;100.00;97302.22;4967150;28;20034;-80
2021/01/12 08:37:23;;;;;;;0.75;0.75;;;;;;;1.94;100.00;97301.28;4958081;28;20138;-81
2021/01/12 08:39:50;;;;;;;2.33;2.10;;;;;;;2.01;100.00;97283.50;4957906;28;20113;-80
2021/01/12 08:42:19;;;;;;;1.92;1.50;;;;;;;2.21;100.00;97291.63;4971121;28;20061;-81
2021/01/12 08:44:46;;;;;;;2.33;1.35;;;;;;;2.21;100.00;97296.91;4960218;28;20570;-80
2021/01/12 08:47:12;;;;;;;1.63;1.52;;;;;;;2.17;100.00;97284.72;4957952;28;20077;-80
2021/01/12 08:49:38;;;;;;;4.65;1.83;;;;;;;2.29;99.17;97286.97;4966305;28;20034;-81
2021/01/12 08:52:05;;;;;;;1.80;1.65;;;;;;;2.30;99.40;97264.94;4969039;28;20018;-80
2021/01/12 08:54:31;;;;;;;1.33;1.20;;;;;;;2.39;99.03;97256.72;4953132;28;20113;-80
2021/01/12 08:57:01;;;;;;;1.23;1.17;;;;;;;2.46;99.39;97255.56;4944983;28;20122;-80
2021/01/12 08:59:36;;;;;;;1.88;1.77;;;;;;;2.51;98.16;97232.53;4962933;28;20035;-80
2021/01/12 09:02:02;;;;;;;2.13;1.92;;;;;;;2.69;97.71;97231.88;4957697;28;20498;-80
2021/01/12 09:04:28;;;;;;;8.50;4.60;;;;;;;2.72;97.24;97231.75;4971921;28;20035;-80
2021/01/12 09:07:04;;;;;;;3.22;2.28;;;;;;;2.65;96.33;97222.31;4969184;28;20066;-80
2021/01/12 09:09:30;;;;;;;2.08;1.88;;;;;;;2.84;95.44;97224.31;4970741;28;20486;-80
2021/01/12 09:12:00;;;;;;;2.35;2.03;;;;;;;2.88;95.18;97223.28;4975625;28;20041;-80
2021/01/12 09:14:32;;;;;;;2.55;2.20;;;;;;;2.85;95.27;97204.91;4961668;28;20030;-80
2021/01/12 09:17:04;;;;;;;7.65;2.85;;;;;;;2.82;94.24;97191.81;4960946;28;20125;-80
2021/01/12 09:19:33;;;;;;;;;;;;;;;2.76;93.91;97207.88;4977579;28;20045;-81
2021/01/12 09:22:10;;;;;;;11.50;1.90;;;;;;;2.67;94.28;97196.75;4960896;28;19914;-81
2021/01/12 09:24:38;;;;;;;5.72;4.03;;;;;;;2.76;93.44;97206.13;4976966;28;20498;-79
2021/01/12 09:27:05;;;;;;;5.53;3.95;;;;;;;2.78;92.63;97198.97;4976997;28;20045;-79
2021/01/12 09:29:38;;;;;;;5.25;2.63;;;;;;;2.78;90.96;97192.84;4977807;28;20030;-80
2021/01/12 09:32:04;;;;;;;2.50;2.10;;;;;;;2.80;91.85;97193.66;4976783;28;20465;-81
2021/01/12 09:34:29;;;;;;;3.67;3.38;;;;;;;2.90;92.21;97173.91;4977363;28;20117;-79
2021/01/12 09:36:55;;;;;;;1.95;1.55;;;;;;;2.87;93.32;97184.56;4976413;28;20404;-81
2021/01/12 09:39:20;;;;;;;12.95;3.88;;;;;;;2.95;92.99;97177.25;4976431;28;20393;-80
2021/01/12 09:41:50;;;;;;;3.97;3.15;;;;;;;2.78;90.63;97155.88;4976444;28;20030;-81
2021/01/12 09:44:15;;;;;;;4.63;2.05;;;;;;;2.85;91.12;97175.84;4976249;28;20030;-81
2021/01/12 09:46:41;;;;;;;2.17;1.20;;;;;;;2.76;92.13;97184.13;4976229;28;20515;-80
2021/01/12 09:49:06;;;;;;;1.55;1.45;;;;;;;2.67;93.68;97154.50;4975979;28;20034;-81
2021/01/12 09:51:32;;;;;;;5.13;3.67;;;;;;;2.58;94.23;97165.41;4976162;28;20066;-80
2021/01/12 09:53:58;;;;;;;2.25;2.05;;;;;;;2.46;94.50;97165.00;4975933;28;20197;-80
2021/01/12 09:56:23;;;;;;;8.45;3.92;;;;;;;2.30;95.53;97159.41;4976541;28;20169;-80
2021/01/12 09:58:51;;;;;;;2.35;2.03;;;;;;;2.26;97.07;97167.47;4975777;28;20034;-82
2021/01/12 10:01:18;;;;;;;7.18;2.92;;;;;;;2.07;97.11;97119.78;4976114;28;20033;-81
2021/01/12 10:03:43;;;;;;;10.85;3.95;;;;;;;2.16;97.85;97138.78;4975545;28;20026;-81
2021/01/12 10:06:21;;;;;;;4.45;2.90;;;;;;;2.36;98.25;97114.34;4975164;28;20037;-81
2021/01/12 10:08:48;;;;;;;5.18;2.75;;;;;;;2.52;97.55;97106.72;4975811;28;20524;-80
2021/01/12 10:11:15;;;;;;;3.55;3.22;;;;;;;2.67;97.55;97112.28;4975603;28;20026;-81
2021/01/12 10:13:44;;;;;;;15.38;4.88;;;;;;;2.70;95.49;97091.03;4943555;28;20116;-80
2021/01/12 10:16:09;;;;;;;3.15;2.35;;;;;;;2.64;96.52;97080.72;4975436;28;20128;-80
2021/01/12 10:18:36;;;;;;;5.30;3.13;;;;;;;2.61;96.22;97088.75;4975380;28;20549;-80
2021/01/12 10:21:03;;;;;;;2.65;2.45;;;;;;;2.77;95.77;97085.53;4975402;28;20041;-80
2021/01/12 10:23:29;;;;;;;2.38;2.05;;;;;;;2.68;95.40;97076.16;4991568;28;20057;-81
2021/01/12 10:25:55;;;;;;;1.38;1.13;;;;;;;2.64;95.66;97074.56;4976801;28;20034;-79
2021/01/12 10:28:21;;;;;;;2.28;2.15;;;;;;;2.62;97.40;97087.81;4975026;28;20125;-80
2021/01/12 10:30:47;;;;;;;6.20;3.13;;;;;;;2.58;97.36;97091.50;4973691;28;20045;-81
2021/01/12 10:33:14;;;;;;;2.60;1.95;;;;;;;2.74;97.20;97097.91;4974901;28;20034;-79
2021/01/12 10:35:40;;;;;;;1.75;1.65;;;;;;;2.85;96.21;97083.44;4975144;28;20031;-79
2021/01/12 10:38:05;;;;;;;3.17;2.72;;;;;;;3.08;95.10;97070.16;4958986;28;20065;-79
2021/01/12 10:40:31;;;;;;;1.63;1.52;;;;;;;3.05;95.22;97060.59;4974929;28;20485;-79
2021/01/12 10:42:57;;;;;;;1.92;1.80;;;;;;;3.06;94.10;97058.81;4974931;28;20130;-79
2021/01/12 10:45:23;;;;;;;2.28;1.90;;;;;;;2.98;94.11;97064.41;4975146;28;20496;-78
2021/01/12 10:47:52;;;;;;;2.05;1.90;;;;;;;2.90;94.47;97044.47;4975003;28;20034;-80
2021/01/12 10:50:20;;;;;;;10.50;3.80;;;;;;;3.01;94.38;97044.94;4958889;28;20114;-77
2021/01/12 10:52:45;;;;;;;3.45;2.72;;;;;;;2.96;94.70;97054.81;4974884;28;20046;-79
2021/01/12 10:55:12;;;;;;;1.40;1.35;;;;;;;3.06;94.31;97061.44;4958576;28;20026;-81
2021/01/12 10:57:38;;;;;;;6.88;2.88;;;;;;;3.07;94.53;97053.47;4958852;28;20037;-79
2021/01/12 11:00:15;;;;;;;5.15;3.15;;;;;;;2.79;94.02;97046.69;4974899;28;20062;-79
2021/01/12 11:02:41;;;;;;;2.60;2.13;;;;;;;2.64;94.58;97054.31;4976387;28;20040;-79
2021/01/12 11:05:07;;;;;;;6.53;4.53;;;;;;;2.57;96.81;97058.09;4974804;28;20026;-79
2021/01/12 11:07:33;;;;;;;5.30;3.08;;;;;;;2.37;96.57;97047.41;4958947;28;20387;-79
2021/01/12 11:09:59;;;;;;;3.38;1.98;;;;;;;2.54;97.14;97058.22;4958732;28;20033;-79
2021/01/12 11:12:26;;;;;;;4.50;2.63;;;;;;;2.65;95.98;97037.53;4974625;28;20019;-79
2021/01/12 11:14:53;;;;;;;4.93;3.25;;;;;;;2.86;95.96;97050.84;4974688;28;20076;-79
2021/01/12 11:17:19;;;;;;;4.25;2.90;;;;;;;2.81;95.13;97040.44;4974776;28;20098;-79
2021/01/12 11:19:44;;;;;;;5.60;3.05;;;;;;;2.77;94.76;97043.28;4975646;28;20026;-80
2021/01/12 11:22:10;;;;;;;3.53;3.25;;;;;;;2.76;95.11;97036.25;4973188;28;20062;-79
2021/01/12 11:24:36;;;;;;;2.58;2.35;;;;;;;2.74;94.88;97034.53;4974723;28;20042;-80
2021/01/12 11:27:06;;;;;;;0.75;0.73;;;;;;;2.74;94.44;97038.94;4974681;28;20034;-80
2021/01/12 11:29:41;;;;;;;2.97;2.17;;;;;;;2.90;93.68;97040.06;4950970;28;20037;-79
2021/01/12 11:32:07;;;;;;;1.90;1.77;;;;;;;2.81;94.65;97034.28;4957761;28;20096;-80
2021/01/12 11:34:33;;;;;;;1.73;1.63;;;;;;;2.79;93.73;97044.06;4974055;28;20030;-80
2021/01/12 11:36:59;;;;;;;1.20;1.20;;;;;;;2.70;94.13;97032.97;4973882;28;20066;-79
2021/01/12 11:39:25;;;;;;;1.17;1.15;;;;;;;2.65;94.93;97020.84;4974076;28;20465;-79